1H2

Effingham County Memorial Airport

Effingham, Illinois, USA
METAR K1H2 210915Z AUTO 00000KT 10SM CLR M13/M15 A3049 RMK AO2 T11281150
Observed Flight Rules
Jan-21 @ 09:15 UTC (31 minutes ago) Visual Flight Rules
Visibility Clouds
10 miles
  • Clear skies
Temperatures Readings
Current -13°C / 9°F
Dewpoint -15°C / 5°F
Humidity 85%
Altimeter 30.49" Hg
Pressure 1032.51 hPa
Elevation 179
METAR K1H2 210915Z AUTO 00000KT 10SM CLR M13/M15 A3049 RMK AO2 T11281150
Observed Flight Rules
Jan-21 @ 09:15 UTC
(31 minutes ago)
VFR
Clouds
  • Clear skies
Temperature Dewpoint
-13°C / 9°F -15°C / 5°F
Humidity Altimeter Pressure
85% 30.49" Hg 1032.51 hPa